sensor_id;sensor_type;location;lat;lon;timestamp;P1;durP1;ratioP1;P2;durP2;ratioP2
5458;SDS011;2752;49.992;8.422;2022-11-20T00:00:18;31.03;;;13.80;;
5458;SDS011;2752;49.992;8.422;2022-11-20T00:02:45;29.33;;;13.60;;
5458;SDS011;2752;49.992;8.422;2022-11-20T00:05:12;35.60;;;14.83;;
5458;SDS011;2752;49.992;8.422;2022-11-20T00:07:38;30.40;;;13.43;;
5458;SDS011;2752;49.992;8.422;2022-11-20T00:10:05;33.10;;;14.13;;
5458;SDS011;2752;49.992;8.422;2022-11-20T00:12:32;26.63;;;12.80;;
5458;SDS011;2752;49.992;8.422;2022-11-20T00:14:59;31.00;;;14.00;;
5458;SDS011;2752;49.992;8.422;2022-11-20T00:17:27;37.67;;;16.97;;
5458;SDS011;2752;49.992;8.422;2022-11-20T00:19:54;34.03;;;13.63;;
5458;SDS011;2752;49.992;8.422;2022-11-20T00:22:20;36.73;;;15.53;;
5458;SDS011;2752;49.992;8.422;2022-11-20T00:24:47;37.73;;;14.30;;
5458;SDS011;2752;49.992;8.422;2022-11-20T00:27:13;32.57;;;13.50;;
5458;SDS011;2752;49.992;8.422;2022-11-20T00:29:40;32.23;;;13.27;;
5458;SDS011;2752;49.992;8.422;2022-11-20T00:32:07;31.93;;;13.20;;
5458;SDS011;2752;49.992;8.422;2022-11-20T00:34:35;31.03;;;13.30;;
5458;SDS011;2752;49.992;8.422;2022-11-20T00:37:01;34.30;;;14.33;;
5458;SDS011;2752;49.992;8.422;2022-11-20T00:39:28;30.67;;;13.67;;
5458;SDS011;2752;49.992;8.422;2022-11-20T00:41:55;33.40;;;13.70;;
5458;SDS011;2752;49.992;8.422;2022-11-20T00:44:21;29.73;;;13.00;;
5458;SDS011;2752;49.992;8.422;2022-11-20T00:46:48;37.33;;;16.27;;
5458;SDS011;2752;49.992;8.422;2022-11-20T00:49:15;42.10;;;14.63;;
5458;SDS011;2752;49.992;8.422;2022-11-20T00:51:43;39.80;;;16.13;;
5458;SDS011;2752;49.992;8.422;2022-11-20T00:54:09;39.10;;;15.70;;
5458;SDS011;2752;49.992;8.422;2022-11-20T00:56:36;31.20;;;14.10;;
5458;SDS011;2752;49.992;8.422;2022-11-20T00:59:03;32.47;;;13.77;;
5458;SDS011;2752;49.992;8.422;2022-11-20T01:01:29;40.63;;;15.10;;
5458;SDS011;2752;49.992;8.422;2022-11-20T01:03:57;32.30;;;14.00;;
5458;SDS011;2752;49.992;8.422;2022-11-20T01:06:25;30.97;;;12.47;;
5458;SDS011;2752;49.992;8.422;2022-11-20T01:08:55;30.23;;;12.07;;
5458;SDS011;2752;49.992;8.422;2022-11-20T01:11:24;36.33;;;14.40;;
5458;SDS011;2752;49.992;8.422;2022-11-20T01:13:53;29.70;;;13.83;;
5458;SDS011;2752;49.992;8.422;2022-11-20T01:16:21;29.53;;;13.10;;
5458;SDS011;2752;49.992;8.422;2022-11-20T01:18:50;36.17;;;14.83;;
5458;SDS011;2752;49.992;8.422;2022-11-20T01:21:19;33.23;;;13.23;;
5458;SDS011;2752;49.992;8.422;2022-11-20T01:23:47;34.30;;;14.90;;
5458;SDS011;2752;49.992;8.422;2022-11-20T01:26:17;32.43;;;14.27;;
5458;SDS011;2752;49.992;8.422;2022-11-20T01:28:45;35.17;;;12.70;;
5458;SDS011;2752;49.992;8.422;2022-11-20T01:31:13;37.30;;;14.57;;
5458;SDS011;2752;49.992;8.422;2022-11-20T01:33:44;35.77;;;15.03;;
5458;SDS011;2752;49.992;8.422;2022-11-20T01:36:12;44.57;;;16.10;;
5458;SDS011;2752;49.992;8.422;2022-11-20T01:38:40;29.37;;;13.20;;
5458;SDS011;2752;49.992;8.422;2022-11-20T01:41:08;29.37;;;12.90;;
5458;SDS011;2752;49.992;8.422;2022-11-20T01:43:37;32.40;;;14.70;;
5458;SDS011;2752;49.992;8.422;2022-11-20T01:48:49;38.23;;;15.63;;
5458;SDS011;2752;49.992;8.422;2022-11-20T01:51:22;35.77;;;15.10;;
5458;SDS011;2752;49.992;8.422;2022-11-20T01:53:52;41.10;;;15.40;;
5458;SDS011;2752;49.992;8.422;2022-11-20T01:56:21;34.80;;;14.70;;
5458;SDS011;2752;49.992;8.422;2022-11-20T01:58:51;33.37;;;15.00;;
5458;SDS011;2752;49.992;8.422;2022-11-20T02:01:22;33.37;;;15.47;;
5458;SDS011;2752;49.992;8.422;2022-11-20T02:03:49;38.27;;;16.30;;
5458;SDS011;2752;49.992;8.422;2022-11-20T02:06:17;41.10;;;15.90;;
5458;SDS011;2752;49.992;8.422;2022-11-20T02:08:46;35.80;;;16.13;;
5458;SDS011;2752;49.992;8.422;2022-11-20T02:11:13;42.03;;;16.00;;
5458;SDS011;2752;49.992;8.422;2022-11-20T02:13:40;39.23;;;14.83;;
5458;SDS011;2752;49.992;8.422;2022-11-20T02:16:21;39.40;;;16.27;;
5458;SDS011;2752;49.992;8.422;2022-11-20T02:18:50;42.57;;;16.57;;
5458;SDS011;2752;49.992;8.422;2022-11-20T02:21:21;37.20;;;15.50;;
5458;SDS011;2752;49.992;8.422;2022-11-20T02:23:57;44.27;;;15.50;;
5458;SDS011;2752;49.992;8.422;2022-11-20T02:26:38;37.10;;;14.77;;
5458;SDS011;2752;49.992;8.422;2022-11-20T02:29:08;46.10;;;17.30;;
5458;SDS011;2752;49.992;8.422;2022-11-20T02:31:36;41.67;;;15.57;;
5458;SDS011;2752;49.992;8.422;2022-11-20T02:34:04;44.20;;;15.23;;
5458;SDS011;2752;49.992;8.422;2022-11-20T02:36:32;40.20;;;17.33;;
5458;SDS011;2752;49.992;8.422;2022-11-20T02:39:01;37.83;;;16.87;;
5458;SDS011;2752;49.992;8.422;2022-11-20T02:41:32;39.80;;;16.30;;
5458;SDS011;2752;49.992;8.422;2022-11-20T02:44:00;35.90;;;17.07;;
5458;SDS011;2752;49.992;8.422;2022-11-20T02:46:27;43.57;;;18.00;;
5458;SDS011;2752;49.992;8.422;2022-11-20T02:48:53;41.97;;;17.50;;
5458;SDS011;2752;49.992;8.422;2022-11-20T02:51:20;39.93;;;16.80;;
5458;SDS011;2752;49.992;8.422;2022-11-20T02:53:47;44.57;;;19.17;;
5458;SDS011;2752;49.992;8.422;2022-11-20T02:56:15;44.70;;;15.93;;
5458;SDS011;2752;49.992;8.422;2022-11-20T02:58:42;42.33;;;16.60;;
5458;SDS011;2752;49.992;8.422;2022-11-20T03:01:08;40.87;;;15.60;;
5458;SDS011;2752;49.992;8.422;2022-11-20T03:03:35;40.87;;;16.30;;
5458;SDS011;2752;49.992;8.422;2022-11-20T03:06:02;43.00;;;16.30;;
5458;SDS011;2752;49.992;8.422;2022-11-20T03:08:29;39.10;;;16.77;;
5458;SDS011;2752;49.992;8.422;2022-11-20T03:10:55;46.07;;;17.47;;
5458;SDS011;2752;49.992;8.422;2022-11-20T03:13:24;36.67;;;15.30;;
5458;SDS011;2752;49.992;8.422;2022-11-20T03:15:51;40.83;;;15.70;;
5458;SDS011;2752;49.992;8.422;2022-11-20T03:18:17;41.40;;;15.97;;
5458;SDS011;2752;49.992;8.422;2022-11-20T03:20:44;50.30;;;15.80;;
5458;SDS011;2752;49.992;8.422;2022-11-20T03:23:11;44.40;;;17.00;;
5458;SDS011;2752;49.992;8.422;2022-11-20T03:25:37;45.43;;;18.50;;
5458;SDS011;2752;49.992;8.422;2022-11-20T03:28:04;54.37;;;18.37;;
5458;SDS011;2752;49.992;8.422;2022-11-20T03:30:32;42.10;;;16.77;;
5458;SDS011;2752;49.992;8.422;2022-11-20T03:32:59;44.43;;;16.63;;
5458;SDS011;2752;49.992;8.422;2022-11-20T03:35:25;46.73;;;18.17;;
5458;SDS011;2752;49.992;8.422;2022-11-20T03:37:52;40.73;;;16.70;;
5458;SDS011;2752;49.992;8.422;2022-11-20T03:40:19;38.63;;;17.00;;
5458;SDS011;2752;49.992;8.422;2022-11-20T03:42:45;42.97;;;16.57;;
5458;SDS011;2752;49.992;8.422;2022-11-20T03:45:12;38.10;;;16.07;;
5458;SDS011;2752;49.992;8.422;2022-11-20T03:47:41;49.93;;;17.33;;
5458;SDS011;2752;49.992;8.422;2022-11-20T03:50:08;40.47;;;16.80;;
5458;SDS011;2752;49.992;8.422;2022-11-20T03:52:36;43.63;;;16.37;;
5458;SDS011;2752;49.992;8.422;2022-11-20T03:55:03;39.70;;;16.23;;
5458;SDS011;2752;49.992;8.422;2022-11-20T03:57:31;47.00;;;18.77;;
5458;SDS011;2752;49.992;8.422;2022-11-20T03:59:57;36.50;;;15.50;;
5458;SDS011;2752;49.992;8.422;2022-11-20T04:02:24;47.73;;;17.93;;
5458;SDS011;2752;49.992;8.422;2022-11-20T04:04:52;51.13;;;20.10;;
5458;SDS011;2752;49.992;8.422;2022-11-20T04:07:18;39.50;;;16.87;;
5458;SDS011;2752;49.992;8.422;2022-11-20T04:09:45;40.40;;;16.50;;
5458;SDS011;2752;49.992;8.422;2022-11-20T04:12:13;45.33;;;15.97;;
5458;SDS011;2752;49.992;8.422;2022-11-20T04:14:39;51.53;;;18.77;;
5458;SDS011;2752;49.992;8.422;2022-11-20T04:17:06;45.00;;;18.27;;
5458;SDS011;2752;49.992;8.422;2022-11-20T04:19:33;41.63;;;16.23;;
5458;SDS011;2752;49.992;8.422;2022-11-20T04:22:01;47.30;;;18.43;;
5458;SDS011;2752;49.992;8.422;2022-11-20T04:24:27;51.63;;;17.53;;
5458;SDS011;2752;49.992;8.422;2022-11-20T04:26:54;51.57;;;19.70;;
5458;SDS011;2752;49.992;8.422;2022-11-20T04:29:21;48.97;;;16.80;;
5458;SDS011;2752;49.992;8.422;2022-11-20T04:31:47;42.70;;;17.03;;
5458;SDS011;2752;49.992;8.422;2022-11-20T04:34:14;48.33;;;17.07;;
5458;SDS011;2752;49.992;8.422;2022-11-20T04:36:41;47.13;;;17.87;;
5458;SDS011;2752;49.992;8.422;2022-11-20T04:39:12;41.13;;;17.47;;
5458;SDS011;2752;49.992;8.422;2022-11-20T04:41:40;48.47;;;18.60;;
5458;SDS011;2752;49.992;8.422;2022-11-20T04:44:07;45.23;;;17.63;;
5458;SDS011;2752;49.992;8.422;2022-11-20T04:46:35;42.30;;;18.50;;
5458;SDS011;2752;49.992;8.422;2022-11-20T04:49:03;49.77;;;17.90;;
5458;SDS011;2752;49.992;8.422;2022-11-20T04:51:30;42.37;;;16.13;;
5458;SDS011;2752;49.992;8.422;2022-11-20T04:53:57;48.63;;;18.33;;
5458;SDS011;2752;49.992;8.422;2022-11-20T04:56:25;45.37;;;17.63;;
5458;SDS011;2752;49.992;8.422;2022-11-20T04:58:52;44.90;;;16.23;;
5458;SDS011;2752;49.992;8.422;2022-11-20T05:01:19;43.03;;;16.60;;
5458;SDS011;2752;49.992;8.422;2022-11-20T05:03:47;54.10;;;18.00;;
5458;SDS011;2752;49.992;8.422;2022-11-20T05:06:15;45.50;;;17.80;;
5458;SDS011;2752;49.992;8.422;2022-11-20T05:08:43;50.90;;;18.97;;
5458;SDS011;2752;49.992;8.422;2022-11-20T05:11:11;47.47;;;17.53;;
5458;SDS011;2752;49.992;8.422;2022-11-20T05:13:40;46.30;;;18.33;;
5458;SDS011;2752;49.992;8.422;2022-11-20T05:16:08;43.63;;;17.73;;
5458;SDS011;2752;49.992;8.422;2022-11-20T05:18:36;46.60;;;15.10;;
5458;SDS011;2752;49.992;8.422;2022-11-20T05:21:04;44.83;;;16.10;;
5458;SDS011;2752;49.992;8.422;2022-11-20T05:23:32;44.97;;;18.07;;
5458;SDS011;2752;49.992;8.422;2022-11-20T05:25:59;51.23;;;18.00;;
5458;SDS011;2752;49.992;8.422;2022-11-20T05:28:26;43.83;;;18.10;;
5458;SDS011;2752;49.992;8.422;2022-11-20T05:31:03;44.17;;;17.00;;
5458;SDS011;2752;49.992;8.422;2022-11-20T05:33:30;50.10;;;17.43;;
5458;SDS011;2752;49.992;8.422;2022-11-20T05:35:57;49.23;;;17.07;;
5458;SDS011;2752;49.992;8.422;2022-11-20T05:38:24;48.60;;;17.23;;
5458;SDS011;2752;49.992;8.422;2022-11-20T05:40:51;49.50;;;17.40;;
5458;SDS011;2752;49.992;8.422;2022-11-20T05:43:17;43.23;;;15.77;;
5458;SDS011;2752;49.992;8.422;2022-11-20T05:45:51;52.10;;;18.50;;
5458;SDS011;2752;49.992;8.422;2022-11-20T05:48:19;47.60;;;17.03;;
5458;SDS011;2752;49.992;8.422;2022-11-20T05:50:46;43.90;;;17.00;;
5458;SDS011;2752;49.992;8.422;2022-11-20T05:53:13;44.80;;;16.10;;
5458;SDS011;2752;49.992;8.422;2022-11-20T05:55:40;54.07;;;17.73;;
5458;SDS011;2752;49.992;8.422;2022-11-20T05:58:06;48.70;;;18.33;;
5458;SDS011;2752;49.992;8.422;2022-11-20T06:00:33;46.90;;;16.80;;
5458;SDS011;2752;49.992;8.422;2022-11-20T06:03:00;53.67;;;18.43;;
5458;SDS011;2752;49.992;8.422;2022-11-20T06:05:28;42.60;;;16.83;;
5458;SDS011;2752;49.992;8.422;2022-11-20T06:07:55;47.43;;;17.50;;
5458;SDS011;2752;49.992;8.422;2022-11-20T06:10:21;46.37;;;17.07;;
5458;SDS011;2752;49.992;8.422;2022-11-20T06:12:48;56.20;;;15.30;;
5458;SDS011;2752;49.992;8.422;2022-11-20T06:15:15;43.97;;;16.53;;
5458;SDS011;2752;49.992;8.422;2022-11-20T06:17:41;46.47;;;16.90;;
5458;SDS011;2752;49.992;8.422;2022-11-20T06:20:08;40.23;;;16.47;;
5458;SDS011;2752;49.992;8.422;2022-11-20T06:22:37;47.00;;;19.00;;
5458;SDS011;2752;49.992;8.422;2022-11-20T06:25:04;41.67;;;17.17;;
5458;SDS011;2752;49.992;8.422;2022-11-20T06:27:30;51.30;;;18.07;;
5458;SDS011;2752;49.992;8.422;2022-11-20T06:29:57;39.83;;;16.67;;
5458;SDS011;2752;49.992;8.422;2022-11-20T06:32:24;46.10;;;17.00;;
5458;SDS011;2752;49.992;8.422;2022-11-20T06:34:50;47.67;;;18.40;;
5458;SDS011;2752;49.992;8.422;2022-11-20T06:37:17;48.20;;;18.20;;
5458;SDS011;2752;49.992;8.422;2022-11-20T06:39:45;46.63;;;17.13;;
5458;SDS011;2752;49.992;8.422;2022-11-20T06:42:12;51.37;;;18.47;;
5458;SDS011;2752;49.992;8.422;2022-11-20T06:44:38;51.80;;;18.30;;
5458;SDS011;2752;49.992;8.422;2022-11-20T06:47:05;49.37;;;18.60;;
5458;SDS011;2752;49.992;8.422;2022-11-20T06:49:32;49.13;;;19.47;;
5458;SDS011;2752;49.992;8.422;2022-11-20T06:51:59;50.57;;;19.67;;
5458;SDS011;2752;49.992;8.422;2022-11-20T06:54:25;48.13;;;19.20;;
5458;SDS011;2752;49.992;8.422;2022-11-20T06:56:53;45.80;;;17.27;;
5458;SDS011;2752;49.992;8.422;2022-11-20T06:59:20;51.67;;;19.13;;
5458;SDS011;2752;49.992;8.422;2022-11-20T07:01:47;50.00;;;18.07;;
5458;SDS011;2752;49.992;8.422;2022-11-20T07:04:14;48.70;;;17.17;;
5458;SDS011;2752;49.992;8.422;2022-11-20T07:06:40;50.30;;;19.00;;
5458;SDS011;2752;49.992;8.422;2022-11-20T07:09:07;55.30;;;20.17;;
5458;SDS011;2752;49.992;8.422;2022-11-20T07:11:33;53.80;;;19.27;;
5458;SDS011;2752;49.992;8.422;2022-11-20T07:14:02;54.73;;;18.87;;
5458;SDS011;2752;49.992;8.422;2022-11-20T07:16:28;46.63;;;18.37;;
5458;SDS011;2752;49.992;8.422;2022-11-20T07:18:55;43.77;;;18.33;;
5458;SDS011;2752;49.992;8.422;2022-11-20T07:21:22;51.40;;;18.00;;
5458;SDS011;2752;49.992;8.422;2022-11-20T07:23:48;43.87;;;17.80;;
5458;SDS011;2752;49.992;8.422;2022-11-20T07:26:15;45.00;;;17.77;;
5458;SDS011;2752;49.992;8.422;2022-11-20T07:28:44;47.17;;;19.23;;
5458;SDS011;2752;49.992;8.422;2022-11-20T07:31:12;49.17;;;19.00;;
5458;SDS011;2752;49.992;8.422;2022-11-20T07:33:39;56.50;;;19.80;;
5458;SDS011;2752;49.992;8.422;2022-11-20T07:36:06;47.70;;;19.60;;
5458;SDS011;2752;49.992;8.422;2022-11-20T07:38:33;46.57;;;19.53;;
5458;SDS011;2752;49.992;8.422;2022-11-20T07:40:59;56.03;;;19.97;;
5458;SDS011;2752;49.992;8.422;2022-11-20T07:43:26;57.23;;;19.83;;
5458;SDS011;2752;49.992;8.422;2022-11-20T07:45:54;58.20;;;19.90;;
5458;SDS011;2752;49.992;8.422;2022-11-20T07:48:22;56.30;;;20.30;;
5458;SDS011;2752;49.992;8.422;2022-11-20T07:50:52;54.03;;;20.00;;
5458;SDS011;2752;49.992;8.422;2022-11-20T07:53:19;50.43;;;17.70;;
5458;SDS011;2752;49.992;8.422;2022-11-20T07:55:46;60.00;;;19.20;;
5458;SDS011;2752;49.992;8.422;2022-11-20T07:58:13;46.03;;;19.17;;
5458;SDS011;2752;49.992;8.422;2022-11-20T08:00:40;53.97;;;19.47;;
5458;SDS011;2752;49.992;8.422;2022-11-20T08:03:07;57.80;;;19.53;;
5458;SDS011;2752;49.992;8.422;2022-11-20T08:05:35;52.47;;;19.37;;
5458;SDS011;2752;49.992;8.422;2022-11-20T08:08:02;54.13;;;20.13;;
5458;SDS011;2752;49.992;8.422;2022-11-20T08:10:29;50.97;;;19.67;;
5458;SDS011;2752;49.992;8.422;2022-11-20T08:12:55;60.70;;;19.83;;
5458;SDS011;2752;49.992;8.422;2022-11-20T08:15:40;51.00;;;18.57;;
5458;SDS011;2752;49.992;8.422;2022-11-20T08:18:07;62.27;;;19.13;;
5458;SDS011;2752;49.992;8.422;2022-11-20T08:20:37;54.57;;;19.47;;
5458;SDS011;2752;49.992;8.422;2022-11-20T08:23:04;49.93;;;19.20;;
5458;SDS011;2752;49.992;8.422;2022-11-20T08:25:32;55.20;;;20.20;;
5458;SDS011;2752;49.992;8.422;2022-11-20T08:28:00;58.83;;;21.67;;
5458;SDS011;2752;49.992;8.422;2022-11-20T08:30:28;64.90;;;22.43;;
5458;SDS011;2752;49.992;8.422;2022-11-20T08:32:59;59.87;;;19.83;;
5458;SDS011;2752;49.992;8.422;2022-11-20T08:35:27;54.37;;;21.23;;
5458;SDS011;2752;49.992;8.422;2022-11-20T08:37:55;55.33;;;18.87;;
5458;SDS011;2752;49.992;8.422;2022-11-20T08:40:22;61.83;;;19.23;;
5458;SDS011;2752;49.992;8.422;2022-11-20T08:42:49;54.90;;;19.67;;
5458;SDS011;2752;49.992;8.422;2022-11-20T08:45:17;54.90;;;19.60;;
5458;SDS011;2752;49.992;8.422;2022-11-20T08:47:44;62.17;;;20.47;;
5458;SDS011;2752;49.992;8.422;2022-11-20T08:50:12;48.60;;;17.03;;
5458;SDS011;2752;49.992;8.422;2022-11-20T08:52:40;57.83;;;19.30;;
5458;SDS011;2752;49.992;8.422;2022-11-20T08:55:08;50.60;;;19.10;;
5458;SDS011;2752;49.992;8.422;2022-11-20T08:57:36;48.17;;;16.80;;
5458;SDS011;2752;49.992;8.422;2022-11-20T09:00:04;54.23;;;17.50;;
5458;SDS011;2752;49.992;8.422;2022-11-20T09:02:32;59.60;;;19.03;;
5458;SDS011;2752;49.992;8.422;2022-11-20T09:04:59;50.20;;;20.13;;
5458;SDS011;2752;49.992;8.422;2022-11-20T09:07:27;46.20;;;17.90;;
5458;SDS011;2752;49.992;8.422;2022-11-20T09:09:54;44.37;;;17.70;;
5458;SDS011;2752;49.992;8.422;2022-11-20T09:12:22;51.53;;;18.37;;
5458;SDS011;2752;49.992;8.422;2022-11-20T09:14:49;50.10;;;17.53;;
5458;SDS011;2752;49.992;8.422;2022-11-20T09:17:15;54.13;;;18.93;;
5458;SDS011;2752;49.992;8.422;2022-11-20T09:19:42;44.97;;;18.20;;
5458;SDS011;2752;49.992;8.422;2022-11-20T09:22:09;52.83;;;20.40;;
5458;SDS011;2752;49.992;8.422;2022-11-20T09:24:35;52.50;;;20.17;;
5458;SDS011;2752;49.992;8.422;2022-11-20T09:27:03;53.27;;;18.47;;
5458;SDS011;2752;49.992;8.422;2022-11-20T09:29:31;50.10;;;18.50;;
5458;SDS011;2752;49.992;8.422;2022-11-20T09:31:58;44.03;;;16.73;;
5458;SDS011;2752;49.992;8.422;2022-11-20T09:34:25;45.73;;;17.70;;
5458;SDS011;2752;49.992;8.422;2022-11-20T09:36:52;48.03;;;17.87;;
5458;SDS011;2752;49.992;8.422;2022-11-20T09:39:18;54.10;;;18.77;;
5458;SDS011;2752;49.992;8.422;2022-11-20T09:44:55;52.50;;;18.83;;
5458;SDS011;2752;49.992;8.422;2022-11-20T09:47:45;54.73;;;19.10;;
5458;SDS011;2752;49.992;8.422;2022-11-20T09:50:25;44.57;;;17.30;;
5458;SDS011;2752;49.992;8.422;2022-11-20T09:53:04;49.43;;;18.73;;
5458;SDS011;2752;49.992;8.422;2022-11-20T09:55:37;51.13;;;20.60;;
5458;SDS011;2752;49.992;8.422;2022-11-20T09:58:05;40.90;;;15.83;;
5458;SDS011;2752;49.992;8.422;2022-11-20T10:00:35;48.63;;;19.13;;
5458;SDS011;2752;49.992;8.422;2022-11-20T10:03:03;51.10;;;18.77;;
5458;SDS011;2752;49.992;8.422;2022-11-20T10:05:39;51.90;;;18.20;;
5458;SDS011;2752;49.992;8.422;2022-11-20T10:08:12;45.77;;;18.80;;
5458;SDS011;2752;49.992;8.422;2022-11-20T10:10:43;55.07;;;18.93;;
5458;SDS011;2752;49.992;8.422;2022-11-20T10:13:15;51.57;;;19.50;;
5458;SDS011;2752;49.992;8.422;2022-11-20T10:15:55;50.53;;;19.00;;
5458;SDS011;2752;49.992;8.422;2022-11-20T10:18:33;52.43;;;20.27;;
5458;SDS011;2752;49.992;8.422;2022-11-20T10:21:11;44.57;;;18.40;;
5458;SDS011;2752;49.992;8.422;2022-11-20T10:23:48;48.60;;;20.13;;
5458;SDS011;2752;49.992;8.422;2022-11-20T10:26:26;49.23;;;19.60;;
5458;SDS011;2752;49.992;8.422;2022-11-20T10:29:02;47.83;;;19.97;;
5458;SDS011;2752;49.992;8.422;2022-11-20T10:31:37;52.93;;;18.90;;
5458;SDS011;2752;49.992;8.422;2022-11-20T10:34:07;52.50;;;20.50;;
5458;SDS011;2752;49.992;8.422;2022-11-20T10:36:43;47.53;;;19.10;;
5458;SDS011;2752;49.992;8.422;2022-11-20T10:39:15;44.23;;;17.90;;
5458;SDS011;2752;49.992;8.422;2022-11-20T10:41:44;45.67;;;18.27;;
5458;SDS011;2752;49.992;8.422;2022-11-20T10:44:16;37.30;;;17.00;;
5458;SDS011;2752;49.992;8.422;2022-11-20T10:47:11;47.27;;;18.70;;
5458;SDS011;2752;49.992;8.422;2022-11-20T10:49:40;41.80;;;16.80;;
5458;SDS011;2752;49.992;8.422;2022-11-20T10:52:09;46.97;;;17.53;;
5458;SDS011;2752;49.992;8.422;2022-11-20T10:54:43;38.97;;;17.73;;
5458;SDS011;2752;49.992;8.422;2022-11-20T10:57:17;46.07;;;19.20;;
5458;SDS011;2752;49.992;8.422;2022-11-20T10:59:54;45.33;;;18.80;;
5458;SDS011;2752;49.992;8.422;2022-11-20T11:02:32;40.37;;;18.10;;
5458;SDS011;2752;49.992;8.422;2022-11-20T11:05:08;45.40;;;19.87;;
5458;SDS011;2752;49.992;8.422;2022-11-20T11:07:42;42.73;;;17.53;;
5458;SDS011;2752;49.992;8.422;2022-11-20T11:10:14;46.33;;;19.10;;
5458;SDS011;2752;49.992;8.422;2022-11-20T11:12:44;52.60;;;17.80;;
5458;SDS011;2752;49.992;8.422;2022-11-20T11:15:13;40.27;;;17.13;;
5458;SDS011;2752;49.992;8.422;2022-11-20T11:17:53;46.67;;;18.70;;
5458;SDS011;2752;49.992;8.422;2022-11-20T11:20:20;46.03;;;17.17;;
5458;SDS011;2752;49.992;8.422;2022-11-20T11:22:48;56.90;;;18.17;;
5458;SDS011;2752;49.992;8.422;2022-11-20T11:25:20;42.27;;;17.87;;
5458;SDS011;2752;49.992;8.422;2022-11-20T11:27:49;55.93;;;19.50;;
5458;SDS011;2752;49.992;8.422;2022-11-20T11:30:18;45.30;;;18.47;;
5458;SDS011;2752;49.992;8.422;2022-11-20T11:32:46;52.23;;;17.90;;
5458;SDS011;2752;49.992;8.422;2022-11-20T11:35:24;45.13;;;18.00;;
5458;SDS011;2752;49.992;8.422;2022-11-20T11:37:53;38.85;;;18.15;;
5458;SDS011;2752;49.992;8.422;2022-11-20T11:40:28;52.07;;;19.57;;
5458;SDS011;2752;49.992;8.422;2022-11-20T11:42:57;45.83;;;16.83;;
5458;SDS011;2752;49.992;8.422;2022-11-20T11:45:27;44.07;;;19.20;;
5458;SDS011;2752;49.992;8.422;2022-11-20T11:47:53;41.60;;;16.90;;
5458;SDS011;2752;49.992;8.422;2022-11-20T11:50:24;44.33;;;18.70;;
5458;SDS011;2752;49.992;8.422;2022-11-20T11:53:02;39.67;;;17.00;;
5458;SDS011;2752;49.992;8.422;2022-11-20T11:55:36;42.53;;;18.47;;
5458;SDS011;2752;49.992;8.422;2022-11-20T11:58:09;41.73;;;18.07;;
5458;SDS011;2752;49.992;8.422;2022-11-20T12:00:54;43.37;;;16.53;;
5458;SDS011;2752;49.992;8.422;2022-11-20T12:03:24;46.93;;;17.63;;
5458;SDS011;2752;49.992;8.422;2022-11-20T12:05:57;49.27;;;17.87;;
5458;SDS011;2752;49.992;8.422;2022-11-20T12:08:28;42.13;;;16.87;;
5458;SDS011;2752;49.992;8.422;2022-11-20T12:11:00;38.30;;;16.10;;
5458;SDS011;2752;49.992;8.422;2022-11-20T12:13:35;46.63;;;18.30;;
5458;SDS011;2752;49.992;8.422;2022-11-20T12:16:07;47.00;;;16.70;;
5458;SDS011;2752;49.992;8.422;2022-11-20T12:18:39;39.87;;;17.30;;
5458;SDS011;2752;49.992;8.422;2022-11-20T12:21:11;38.53;;;16.57;;
5458;SDS011;2752;49.992;8.422;2022-11-20T12:23:48;32.43;;;14.27;;
5458;SDS011;2752;49.992;8.422;2022-11-20T12:26:29;38.50;;;16.73;;
5458;SDS011;2752;49.992;8.422;2022-11-20T12:29:06;32.30;;;14.23;;
5458;SDS011;2752;49.992;8.422;2022-11-20T12:31:41;29.57;;;13.10;;
5458;SDS011;2752;49.992;8.422;2022-11-20T12:37:18;23.80;;;11.97;;
5458;SDS011;2752;49.992;8.422;2022-11-20T12:39:56;23.50;;;12.23;;
5458;SDS011;2752;49.992;8.422;2022-11-20T12:42:34;35.53;;;11.90;;
5458;SDS011;2752;49.992;8.422;2022-11-20T12:48:41;22.50;;;11.30;;
5458;SDS011;2752;49.992;8.422;2022-11-20T12:51:19;22.17;;;11.80;;
5458;SDS011;2752;49.992;8.422;2022-11-20T12:54:01;26.30;;;11.00;;
5458;SDS011;2752;49.992;8.422;2022-11-20T12:56:53;28.23;;;12.50;;
5458;SDS011;2752;49.992;8.422;2022-11-20T12:59:27;25.27;;;11.80;;
5458;SDS011;2752;49.992;8.422;2022-11-20T13:02:14;21.07;;;10.80;;
5458;SDS011;2752;49.992;8.422;2022-11-20T13:04:54;28.23;;;12.20;;
5458;SDS011;2752;49.992;8.422;2022-11-20T13:07:30;25.53;;;12.30;;
5458;SDS011;2752;49.992;8.422;2022-11-20T13:10:00;29.70;;;13.20;;
5458;SDS011;2752;49.992;8.422;2022-11-20T13:12:29;33.23;;;14.27;;
5458;SDS011;2752;49.992;8.422;2022-11-20T13:15:02;26.73;;;11.87;;
5458;SDS011;2752;49.992;8.422;2022-11-20T13:17:37;27.70;;;12.87;;
5458;SDS011;2752;49.992;8.422;2022-11-20T13:20:12;26.07;;;13.40;;
5458;SDS011;2752;49.992;8.422;2022-11-20T13:22:42;24.90;;;11.90;;
5458;SDS011;2752;49.992;8.422;2022-11-20T13:25:22;20.93;;;10.80;;
5458;SDS011;2752;49.992;8.422;2022-11-20T13:27:51;27.40;;;13.10;;
5458;SDS011;2752;49.992;8.422;2022-11-20T13:30:19;22.57;;;10.90;;
5458;SDS011;2752;49.992;8.422;2022-11-20T13:32:50;22.57;;;11.30;;
5458;SDS011;2752;49.992;8.422;2022-11-20T13:35:31;24.20;;;10.20;;
5458;SDS011;2752;49.992;8.422;2022-11-20T13:38:00;26.70;;;11.50;;
5458;SDS011;2752;49.992;8.422;2022-11-20T13:40:30;22.63;;;12.40;;
5458;SDS011;2752;49.992;8.422;2022-11-20T13:43:01;23.87;;;11.30;;
5458;SDS011;2752;49.992;8.422;2022-11-20T13:45:41;22.83;;;11.63;;
5458;SDS011;2752;49.992;8.422;2022-11-20T13:48:18;25.00;;;12.17;;
5458;SDS011;2752;49.992;8.422;2022-11-20T13:50:51;24.10;;;11.10;;
5458;SDS011;2752;49.992;8.422;2022-11-20T13:56:21;22.47;;;11.27;;
5458;SDS011;2752;49.992;8.422;2022-11-20T13:58:59;23.93;;;11.17;;
5458;SDS011;2752;49.992;8.422;2022-11-20T14:01:31;28.23;;;11.47;;
5458;SDS011;2752;49.992;8.422;2022-11-20T14:03:59;25.00;;;11.37;;
5458;SDS011;2752;49.992;8.422;2022-11-20T14:06:33;27.90;;;11.17;;
5458;SDS011;2752;49.992;8.422;2022-11-20T14:09:10;25.43;;;11.80;;
5458;SDS011;2752;49.992;8.422;2022-11-20T14:11:45;28.20;;;11.70;;
5458;SDS011;2752;49.992;8.422;2022-11-20T14:14:13;24.47;;;11.07;;
5458;SDS011;2752;49.992;8.422;2022-11-20T14:16:42;25.50;;;11.87;;
5458;SDS011;2752;49.992;8.422;2022-11-20T14:19:26;25.93;;;11.63;;
5458;SDS011;2752;49.992;8.422;2022-11-20T14:22:06;31.60;;;13.23;;
5458;SDS011;2752;49.992;8.422;2022-11-20T14:24:42;31.73;;;14.57;;
5458;SDS011;2752;49.992;8.422;2022-11-20T14:27:13;30.47;;;14.17;;
5458;SDS011;2752;49.992;8.422;2022-11-20T14:29:41;44.10;;;12.53;;
5458;SDS011;2752;49.992;8.422;2022-11-20T14:32:10;28.13;;;12.90;;
5458;SDS011;2752;49.992;8.422;2022-11-20T14:34:40;25.07;;;12.70;;
5458;SDS011;2752;49.992;8.422;2022-11-20T14:37:10;25.63;;;12.90;;
5458;SDS011;2752;49.992;8.422;2022-11-20T14:39:40;28.97;;;15.33;;
5458;SDS011;2752;49.992;8.422;2022-11-20T14:42:15;25.63;;;11.10;;
5458;SDS011;2752;49.992;8.422;2022-11-20T14:44:43;27.93;;;12.23;;
5458;SDS011;2752;49.992;8.422;2022-11-20T14:47:11;27.90;;;13.00;;
5458;SDS011;2752;49.992;8.422;2022-11-20T14:49:39;26.93;;;13.20;;
5458;SDS011;2752;49.992;8.422;2022-11-20T14:52:11;26.20;;;13.03;;
5458;SDS011;2752;49.992;8.422;2022-11-20T14:54:43;28.33;;;13.10;;
5458;SDS011;2752;49.992;8.422;2022-11-20T14:57:21;28.77;;;12.10;;
5458;SDS011;2752;49.992;8.422;2022-11-20T14:59:50;29.47;;;14.70;;
5458;SDS011;2752;49.992;8.422;2022-11-20T15:02:17;27.10;;;13.00;;
5458;SDS011;2752;49.992;8.422;2022-11-20T15:04:44;32.00;;;13.17;;
5458;SDS011;2752;49.992;8.422;2022-11-20T15:07:11;36.67;;;14.10;;
5458;SDS011;2752;49.992;8.422;2022-11-20T15:09:58;43.50;;;13.80;;
5458;SDS011;2752;49.992;8.422;2022-11-20T15:12:27;32.20;;;14.00;;
5458;SDS011;2752;49.992;8.422;2022-11-20T15:14:55;30.83;;;15.33;;
5458;SDS011;2752;49.992;8.422;2022-11-20T15:17:22;29.10;;;13.20;;